Lincoln City, OR

6:37 PM PDT on August 29, 2014 (GMT -0700)
Coronado Shores | Change Station
CLOSE
Current Station
Personal Weather Station
Location: Gleneden Beach, OR
Elevation: 79 ft
Nearby Weather Stations

Elev 79 ft 44.87 °N, 124.04 °W | Updated 7 minutes ago

Fog
Fog
56.5 °F
Feels Like 56.5 °F
N
0.0
Wind Variable Wind from West
Gusts 0.0 mph

Today
High -- | Low -- °F
--% Chance of Precip.
Yesterday
High -- | Low -- °F
Precip. -- in
6:34 AM 7:58 PM
Waxing Crescent, 18% visible
Pressure 30.02 in
Visibility 2.0 miles
Clouds Overcast 300 ft
Dew Point 54 °F
Humidity 90%
Rainfall 0.00 in
Snow Depth Not available.
UV 0 out of 12
Pollen 3.30 out of 12
Air Quality Not available.
Flu Activity Not available.
METAR KONP 300115Z AUTO 00000KT 2SM BR OVC003 16/15 A3002 RMK AO2

More Conditions Fewer Conditions

Pressure 30.02 in
Visibility 2.0 miles
Clouds Overcast 300 ft
Dew Point 54 °F
Humidity 90%
Rainfall 0.00 in
Snow Depth Not available.
UV 0 out of 12
Pollen 3.30 out of 12
Air Quality Not available.
Flu Activity Not available.
METAR KONP 300115Z AUTO 00000KT 2SM BR OVC003 16/15 A3002 RMK AO2

More Conditions Fewer Conditions

10-Day Weather Forecast

Almanac

Astronomy

Aug. 29, 2014 Rise Set
Actual Time 6:34 AM PDT 7:58 PM PDT
Civil Twilight 6:04 AM PDT 8:28 PM PDT
Nautical Twilight 5:27 AM PDT 9:05 PM PDT
Astronomical Twilight 4:47 AM PDT 9:44 PM PDT
Moon 10:41 AM PDT (8/29) 9:46 PM PDT (8/29)
Length of Visible Light 14h 24m
Length of Day
13h 23m
Tomorrow will be 3m 0s shorter.
Waxing Crescent, 18% of the Moon is Illuminated
Today
Waxing Crescent
Sep 2
First Quarter
Sep 8
Full
Sep 15
Last Quarter
Sep 24
New

Today's Extremes

State Highs State Lows

Community

WunderPhotos

Upload Photos

1,748,403 photos uploaded!

Nearby

Snow Depth

Station Depth Elevation
Seine Creek 0 in 2000 ft
Peavine Ridge 4 in 3500 ft
North Fork 1 in 3120 ft
Blazed Alder 0 in 3650 ft
Santiam Junction 0 in 3750 ft

Earthquake Activity

City Distance Mag. Time & Date
No recent earthquake activity has been reported nearby.
Minimum magnitude displayed is 2.5.

Coastal Water Temperatures

Place Temperature
South Beach, OR 52.0 °F
Charleston, OR 53.1 °F

Nearby Weather Stations